Hope, ID

6:58 PM PDT on October 25, 2014 (GMT -0700)
Solar Roadways | Change Station
CLOSE
Current Station
Personal Weather Station
Location: Sagle, ID
Elevation: 2260 ft
Nearby Weather Stations

Elev 2260 ft 48.23 °N, 116.40 °W | Updated 9 minutes ago

Rain
Rain
48.2 °F
Feels Like 48 °F
N
0.0
Wind Variable Wind from WNW
Gusts 3.0 mph

Today
High -- | Low -- °F
--% Chance of Precip.
Yesterday
High -- | Low -- °F
Precip. -- in
7:19 AM 5:37 PM
Waxing Crescent, 5% visible
Pressure 29.56 in
Visibility 10.0 miles
Clouds Scattered Clouds 7500 ft
Overcast 10000 ft
Windchill 48 °F
Dew Point 47 °F
Humidity 96%
Rainfall 0.05 in
Snow Depth 0 in , 0 in , 0 in
UV 0 out of 12
Pollen 1.50 out of 12
Air Quality Not available.
Flu Activity No Activity
METAR KSZT 260135Z AUTO 21003KT 10SM -RA SCT075 OVC100 09/07 A2956 RMK AO2

More Conditions Fewer Conditions

Pressure 29.56 in
Visibility 10.0 miles
Clouds Scattered Clouds 7500 ft
Overcast 10000 ft
Windchill 48 °F
Dew Point 47 °F
Humidity 96%
Rainfall 0.05 in
Snow Depth 0 in , 0 in , 0 in
UV 0 out of 12
Pollen 1.50 out of 12
Air Quality Not available.
Flu Activity No Activity
METAR KSZT 260135Z AUTO 21003KT 10SM -RA SCT075 OVC100 09/07 A2956 RMK AO2

More Conditions Fewer Conditions

Nowcast | as of 6:46 PM PDT on October 25, 2014

Showers and thunderstorms will move northeast from southeast Pend Oreille County into the northern Panhandle of Idaho through 830 PM. Some of these storms will be capable of producing brief periods of heavy rain and gusty winds. Motorists traveling Highway 2 from Diamond Lake to Bonners Ferry and Highway 95 from Sandpoint to Bonners Ferry should be prepared for sudden changes in visibility. Gusty winds can strip leaves off trees onto wet roadways. This can result in slippery roads. Areas affect include Newport WA, Priest River, Sandpoint and Bonners Ferry in Idaho.

×

10-Day Weather Forecast

Almanac

Astronomy

Oct. 25, 2014 Rise Set
Actual Time 7:19 AM PDT 5:37 PM PDT
Civil Twilight 6:47 AM PDT 6:09 PM PDT
Nautical Twilight 6:11 AM PDT 6:46 PM PDT
Astronomical Twilight 5:35 AM PDT 7:22 PM PDT
Moon 9:09 AM PDT (10/25) 6:57 PM PDT (10/25)
Length of Visible Light 11h 21m
Length of Day
10h 17m
Tomorrow will be 3m 16s shorter.
Waxing Crescent, 5% of the Moon is Illuminated
Today
Waxing Crescent
Oct 30
First Quarter
Nov 6
Full
Nov 14
Last Quarter
Nov 22
New

Today's Extremes

State Highs State Lows

Community

WunderPhotos

Upload Photos

1,765,071 photos uploaded!

Nearby

Snow Depth

Station Depth Elevation
Bear Mountain 0 in 5400 ft
Mosquito Ridge 0 in 5200 ft
Schweitzer Basin 0 in 6090 ft
Myrtle Creek 0 in 3520 ft
Hidden Lake 0 in 5040 ft

Earthquake Activity

City Distance Mag. Time & Date
No recent earthquake activity has been reported nearby.
Minimum magnitude displayed is 2.5.

Coastal Water Temperatures

Place Temperature
No Stations Reporting

Nearby Weather Stations